PROFILE

 METAR AND TAF INFORMATION
ADDS - METARS form results

(1003 UTC 18 May 2022)
http://aviationweather.gov/metar/data/
 
ENHK 180950Z 01007KT 330V050 9999 FEW030 BKN057 03/M03 Q1018
ENHK 180920Z 35010KT 9999 FEW030 BKN057 04/M03 Q1018

 AIRPORT MAP

 RUNWAY INFORMATION
Runway 11 Runway length 3179 ft Runway width 98 ft
Runway elevation 19 ft Runway displaced threshold 199 ft Runway heading 119
Runway 29 Runway length 3179 ft Runway width 98 ft
Runway elevation 10 ft Runway displaced threshold 362 ft Runway heading 299

 AIRPORT FREQUENCIES
Type AFIS Name INFO Frequency 119.9 MHZ

 AIRPORT NEAR NAVIGATION AIDS
Type NDB Name Hasvik Frequency 386 KHZ